createdAt,value
2018-03-11T04:31:22.739Z,3.10
2018-03-11T04:33:50.404Z,3.10
2018-03-11T04:36:18.167Z,3.20
2018-03-11T04:38:45.930Z,3.20
2018-03-11T04:41:13.693Z,3.30
2018-03-11T04:43:41.372Z,3.30
2018-03-11T04:46:09.032Z,3.30
2018-03-11T04:48:36.878Z,3.40
2018-03-11T04:51:04.514Z,3.40
2018-03-11T04:53:32.301Z,3.50
2018-03-11T04:55:59.979Z,3.50
2018-03-11T04:58:27.725Z,3.50
2018-03-11T05:00:55.404Z,3.40
2018-03-11T05:03:23.251Z,3.50
2018-03-11T05:05:51.018Z,3.50
2018-03-11T05:08:18.779Z,3.60
2018-03-11T05:10:46.539Z,3.70
2018-03-11T05:13:14.302Z,3.70
2018-03-11T05:15:42.064Z,3.80
2018-03-11T05:18:09.828Z,3.80
2018-03-11T05:20:37.590Z,3.80
2018-03-11T05:23:05.269Z,3.90
2018-03-11T05:25:32.932Z,4.10
2018-03-11T05:28:00.600Z,4.20
2018-03-11T05:30:28.335Z,4.30
2018-03-11T05:32:56.099Z,4.20
2018-03-11T05:35:23.779Z,4.20
2018-03-11T05:37:51.425Z,4.20
2018-03-11T05:40:19.099Z,4.20
2018-03-11T05:42:46.860Z,4.10
2018-03-11T05:45:14.520Z,4.30
2018-03-11T05:47:42.162Z,4.20
2018-03-11T05:50:09.926Z,4.20
2018-03-11T05:52:37.688Z,4.20
2018-03-11T05:55:05.367Z,4.10
2018-03-11T05:57:33.112Z,4.00
2018-03-11T06:00:00.977Z,3.90
2018-03-11T06:02:28.656Z,3.90
2018-03-11T06:04:56.317Z,3.80
2018-03-11T06:07:25.492Z,3.60
2018-03-11T06:09:53.257Z,3.60
2018-03-11T06:12:20.937Z,3.60
2018-03-11T06:14:48.597Z,3.50
2018-03-11T06:17:16.447Z,3.40
2018-03-11T06:19:44.206Z,3.40
2018-03-11T06:22:11.969Z,3.40
2018-03-11T06:24:39.731Z,3.50
2018-03-11T06:27:07.512Z,3.50
2018-03-11T06:29:35.257Z,3.40
2018-03-11T06:32:02.938Z,3.40
2018-03-11T06:34:30.680Z,3.40
2018-03-11T06:36:58.309Z,3.40
2018-03-11T06:39:26.001Z,3.40
2018-03-11T06:41:53.764Z,3.40
2018-03-11T06:44:21.527Z,3.30
2018-03-11T06:46:49.209Z,3.50
2018-03-11T06:49:17.155Z,3.50
2018-03-11T06:51:44.836Z,3.50
2018-03-11T06:54:12.579Z,3.60
2018-03-11T06:56:40.361Z,3.70
2018-03-11T06:59:08.105Z,3.80
2018-03-11T07:01:35.784Z,3.90
2018-03-11T07:04:03.530Z,4.00
2018-03-11T07:06:31.823Z,4.10
2018-03-11T07:08:59.536Z,4.30
2018-03-11T07:11:27.332Z,4.40
2018-03-11T07:13:55.092Z,4.50
2018-03-11T07:16:23.263Z,4.60
2018-03-11T07:18:51.554Z,4.70
2018-03-11T07:21:20.639Z,5.20
2018-03-11T07:23:48.318Z,5.10
2018-03-11T07:26:16.062Z,5.30
2018-03-11T07:28:43.821Z,5.50
2018-03-11T07:31:11.500Z,5.50
2018-03-11T07:33:39.243Z,5.80
2018-03-11T07:36:06.893Z,5.90
2018-03-11T07:38:34.666Z,6.00
2018-03-11T07:41:02.429Z,6.00
2018-03-11T07:43:30.294Z,6.20
2018-03-11T07:45:58.059Z,6.60
2018-03-11T07:48:25.740Z,7.00
2018-03-11T07:50:53.583Z,7.30
2018-03-11T07:53:21.256Z,7.50
2018-03-11T07:55:48.930Z,7.70
2018-03-11T07:58:16.585Z,7.90
2018-03-11T08:00:44.434Z,8.10
2018-03-11T08:03:12.112Z,8.20
2018-03-11T08:05:39.853Z,8.40
2018-03-11T08:08:07.637Z,8.60
2018-03-11T08:10:35.379Z,8.70
2018-03-11T08:13:03.142Z,8.80
2018-03-11T08:15:31.007Z,8.90
2018-03-11T08:17:58.776Z,8.90
2018-03-11T08:20:26.439Z,9.00
2018-03-11T08:22:54.141Z,9.10
2018-03-11T08:25:22.571Z,9.20
2018-03-11T08:27:50.214Z,9.20
2018-03-11T08:30:17.994Z,9.10
2018-03-11T08:32:45.677Z,8.90
2018-03-11T08:35:13.436Z,8.80
2018-03-11T08:37:41.196Z,8.80
2018-03-11T08:40:08.824Z,8.80
2018-03-11T08:42:36.604Z,8.90
2018-03-11T08:45:04.470Z,8.80
2018-03-11T08:47:32.149Z,8.90
2018-03-11T08:49:59.806Z,8.90
2018-03-11T08:52:28.372Z,9.10
2018-03-11T08:54:56.067Z,9.10
2018-03-11T08:57:23.796Z,9.20
2018-03-11T08:59:51.661Z,9.30
2018-03-11T09:02:19.424Z,9.30
2018-03-11T09:04:47.085Z,9.40
2018-03-11T09:07:14.951Z,9.60
2018-03-11T09:09:42.712Z,9.60
2018-03-11T09:12:10.480Z,9.60
2018-03-11T09:14:42.244Z,9.70
2018-03-11T09:17:10.666Z,9.80
2018-03-11T09:19:38.417Z,9.70
2018-03-11T09:22:06.845Z,10.00
2018-03-11T09:24:34.509Z,9.90
2018-03-11T09:27:02.180Z,10.00
2018-03-11T09:29:29.884Z,10.00
2018-03-11T09:31:58.332Z,10.20
2018-03-11T09:34:26.181Z,10.20
2018-03-11T09:36:53.860Z,10.20
2018-03-11T09:39:21.601Z,10.30
2018-03-11T09:41:49.276Z,10.40
2018-03-11T09:44:16.945Z,10.50
2018-03-11T09:46:44.686Z,10.70
2018-03-11T09:49:13.248Z,10.80
2018-03-11T09:51:40.948Z,10.80
2018-03-11T09:54:09.140Z,10.70
2018-03-11T09:56:37.584Z,11.20
2018-03-11T09:59:05.383Z,11.10
2018-03-11T10:01:33.840Z,10.80
2018-03-11T10:04:01.690Z,10.80
2018-03-11T10:06:29.348Z,10.60
2018-03-11T10:08:56.988Z,10.40
2018-03-11T10:11:24.646Z,10.20
2018-03-11T10:13:52.301Z,10.20
2018-03-11T10:16:20.104Z,10.20
2018-03-11T10:18:47.764Z,10.20
2018-03-11T10:21:15.445Z,10.50
2018-03-11T10:23:43.128Z,10.70
2018-03-11T10:26:11.528Z,10.70
2018-03-11T10:28:39.170Z,10.70
2018-03-11T10:31:07.620Z,10.80
2018-03-11T10:33:35.251Z,10.70
2018-03-11T10:36:02.889Z,10.70
2018-03-11T10:38:30.573Z,10.90
2018-03-11T10:40:58.208Z,11.20
2018-03-11T10:43:25.857Z,11.60
2018-03-11T10:45:53.533Z,11.60
2018-03-11T10:48:21.163Z,11.70
2018-03-11T10:50:49.602Z,12.20
2018-03-11T10:53:17.460Z,12.20
2018-03-11T10:55:45.223Z,12.40
2018-03-11T10:58:12.990Z,12.40
2018-03-11T11:00:43.334Z,12.20
2018-03-11T11:06:13.549Z,12.20
2018-03-11T11:08:41.178Z,12.20
2018-03-11T11:11:08.972Z,12.40
2018-03-11T11:13:36.742Z,12.80
2018-03-11T11:16:04.396Z,13.70
2018-03-11T11:18:32.263Z,14.20
2018-03-11T11:21:00.027Z,14.50
2018-03-11T11:23:27.791Z,14.70
2018-03-11T11:25:55.551Z,14.70
2018-03-11T11:28:23.312Z,14.70
2018-03-11T11:30:50.940Z,14.70
2018-03-11T11:33:18.740Z,14.80
2018-03-11T11:35:46.498Z,14.80
2018-03-11T11:38:14.123Z,14.80
2018-03-11T11:40:41.820Z,14.50
2018-03-11T11:43:09.635Z,14.10
2018-03-11T11:45:38.169Z,13.90
2018-03-11T11:48:05.981Z,13.80
2018-03-11T11:50:33.669Z,14.00
2018-03-11T11:53:01.312Z,14.00
2018-03-11T11:55:28.941Z,14.20
2018-03-11T11:57:57.369Z,14.20
2018-03-11T12:00:25.053Z,14.20
2018-03-11T12:02:52.687Z,13.90
2018-03-11T12:05:20.344Z,14.00
2018-03-11T12:07:48.020Z,14.20
2018-03-11T12:10:15.660Z,14.30
2018-03-11T12:12:43.396Z,14.30
2018-03-11T12:15:11.849Z,15.00
2018-03-11T12:17:39.887Z,15.00
2018-03-11T12:20:07.538Z,15.20
2018-03-11T12:22:35.243Z,15.40
2018-03-11T12:25:04.381Z,15.70
2018-03-11T12:27:32.013Z,15.70
2018-03-11T12:29:59.694Z,15.70
2018-03-11T12:32:28.090Z,15.80
2018-03-11T12:34:55.725Z,15.80
2018-03-11T12:37:24.169Z,15.80
2018-03-11T12:39:51.808Z,15.80
2018-03-11T12:42:19.440Z,15.70
2018-03-11T12:44:47.101Z,15.90
2018-03-11T12:47:14.739Z,15.90
2018-03-11T12:49:43.160Z,15.90
2018-03-11T12:52:10.798Z,15.90
2018-03-11T12:54:38.437Z,16.20
2018-03-11T12:57:06.828Z,16.00
2018-03-11T12:59:34.409Z,16.00
2018-03-11T13:02:02.023Z,15.90
2018-03-11T13:04:30.401Z,15.80
2018-03-11T13:06:58.777Z,15.80
2018-03-11T13:09:27.182Z,15.90
2018-03-11T13:11:54.774Z,15.90
2018-03-11T13:14:22.349Z,15.80
2018-03-11T13:16:49.962Z,15.90
2018-03-11T13:19:17.550Z,16.10
2018-03-11T13:21:45.125Z,16.20
2018-03-11T13:24:13.505Z,16.20
2018-03-11T13:26:41.084Z,16.10
2018-03-11T13:29:08.673Z,15.80
2018-03-11T13:31:36.288Z,15.80
2018-03-11T13:34:15.686Z,15.80
2018-03-11T13:36:43.316Z,15.60
2018-03-11T13:39:23.617Z,15.50
2018-03-11T13:41:51.242Z,15.50
2018-03-11T13:44:18.826Z,15.50
2018-03-11T13:47:10.177Z,15.20
2018-03-11T13:49:37.766Z,15.20
2018-03-11T13:52:17.112Z,15.10
2018-03-11T13:54:44.768Z,15.00
2018-03-11T14:00:29.018Z,15.10
2018-03-11T14:02:57.460Z,15.40
2018-03-11T14:05:25.094Z,15.40
2018-03-11T14:07:52.724Z,15.30
2018-03-11T14:10:21.164Z,15.20
2018-03-11T14:12:48.792Z,15.10
2018-03-11T14:15:16.488Z,15.10
2018-03-11T14:17:44.160Z,14.90
2018-03-11T14:20:11.800Z,14.90
2018-03-11T14:22:39.433Z,14.90
2018-03-11T14:25:07.115Z,14.90
2018-03-11T14:27:35.508Z,15.00
2018-03-11T14:30:03.133Z,15.00
2018-03-11T14:32:30.826Z,15.00
2018-03-11T14:34:58.491Z,15.00
2018-03-11T14:37:26.120Z,14.90
2018-03-11T14:39:53.772Z,15.00
2018-03-11T14:42:21.396Z,15.00
2018-03-11T14:44:49.855Z,14.90
2018-03-11T14:47:17.480Z,14.90
2018-03-11T14:49:45.165Z,14.70
2018-03-11T14:52:13.048Z,14.60
2018-03-11T14:54:41.361Z,14.40
2018-03-11T14:57:09.738Z,14.40
2018-03-11T14:59:37.617Z,14.10
2018-03-11T15:02:05.719Z,14.10
2018-03-11T15:04:33.356Z,14.10
2018-03-11T15:07:01.013Z,13.90
2018-03-11T15:09:28.817Z,13.70
2018-03-11T15:11:56.460Z,13.40
2018-03-11T15:14:24.161Z,12.90
2018-03-11T15:16:52.572Z,12.50
2018-03-11T15:19:20.249Z,12.50
2018-03-11T15:21:47.892Z,12.40
2018-03-11T15:24:15.537Z,12.30
2018-03-11T15:26:43.233Z,11.90
2018-03-11T15:29:10.869Z,11.50
2018-03-11T15:31:38.492Z,11.10
2018-03-11T15:34:06.204Z,10.90
2018-03-11T15:36:33.844Z,10.80
2018-03-11T15:39:01.477Z,10.80
2018-03-11T15:41:29.166Z,11.10
2018-03-11T15:43:56.797Z,11.60
2018-03-11T15:46:24.432Z,11.80
2018-03-11T15:48:52.252Z,11.90
2018-03-11T15:51:20.307Z,12.20
2018-03-11T15:53:49.637Z,12.20
2018-03-11T15:56:17.375Z,12.10
2018-03-11T15:58:45.013Z,11.90
2018-03-11T16:01:12.672Z,11.70
2018-03-11T16:03:40.329Z,11.40
2018-03-11T16:06:07.980Z,11.10
2018-03-11T16:08:35.672Z,10.90
2018-03-11T16:11:03.316Z,10.70
2018-03-11T16:13:30.952Z,10.60
2018-03-11T16:15:58.600Z,10.30
2018-03-11T16:18:27.030Z,9.90
2018-03-11T16:20:55.531Z,9.80
2018-03-11T16:23:23.160Z,9.80
2018-03-11T16:25:51.556Z,9.70
2018-03-11T16:28:19.200Z,9.60
2018-03-11T16:30:47.629Z,9.80
2018-03-11T16:33:15.250Z,9.80
2018-03-11T16:35:43.664Z,9.70
2018-03-11T16:38:11.868Z,9.70
2018-03-11T16:40:39.610Z,9.50
2018-03-11T16:43:07.311Z,9.40
2018-03-11T16:45:35.708Z,9.20
2018-03-11T16:48:03.470Z,9.20
2018-03-11T16:50:31.964Z,8.90
2018-03-11T16:52:59.782Z,8.90
2018-03-11T16:55:27.404Z,8.70
2018-03-11T16:57:55.081Z,8.60
2018-03-11T17:00:22.711Z,8.50
2018-03-11T17:02:50.640Z,8.50
2018-03-11T17:05:18.308Z,8.30
2018-03-11T17:07:48.034Z,8.10
2018-03-11T17:10:15.794Z,8.10
2018-03-11T17:12:43.454Z,8.20
2018-03-11T17:15:11.084Z,8.20
2018-03-11T17:17:38.880Z,8.10
2018-03-11T17:20:06.557Z,8.10
2018-03-11T17:22:34.188Z,8.00
2018-03-11T17:25:02.596Z,7.80
2018-03-11T17:27:30.268Z,7.80
2018-03-11T17:29:58.142Z,7.80
2018-03-11T17:32:25.796Z,7.80
2018-03-11T17:34:53.531Z,7.70
2018-03-11T17:37:22.731Z,7.60
2018-03-11T17:39:50.445Z,7.60
2018-03-11T17:42:19.110Z,7.60
2018-03-11T17:44:46.873Z,7.60
2018-03-11T17:47:14.559Z,7.40
2018-03-11T17:49:42.401Z,7.40
2018-03-11T17:52:10.028Z,7.50
2018-03-11T17:54:37.724Z,7.50
2018-03-11T17:57:05.586Z,7.40
2018-03-11T17:59:33.352Z,7.30
2018-03-11T18:02:01.195Z,7.40
2018-03-11T18:04:28.800Z,7.40
2018-03-11T18:06:56.430Z,7.30
2018-03-11T18:09:24.073Z,7.20
2018-03-11T18:11:51.753Z,7.20
2018-03-11T18:14:19.383Z,7.20
2018-03-11T18:16:47.012Z,7.30
2018-03-11T18:19:15.481Z,7.20
2018-03-11T18:21:43.108Z,7.20
2018-03-11T18:24:10.744Z,7.20
2018-03-11T18:26:38.401Z,7.20
2018-03-11T18:29:06.033Z,7.00
2018-03-11T18:31:34.776Z,7.00
2018-03-11T18:34:03.227Z,7.10
2018-03-11T18:36:30.860Z,7.10
2018-03-11T18:38:59.257Z,7.00
2018-03-11T18:41:26.922Z,7.00
2018-03-11T18:43:54.563Z,7.00
2018-03-11T18:46:22.973Z,6.80
2018-03-11T18:48:50.632Z,6.80
2018-03-11T18:51:18.260Z,6.60
2018-03-11T18:53:46.912Z,6.60
2018-03-11T18:56:14.810Z,6.60
2018-03-11T18:58:45.287Z,6.80
2018-03-11T19:01:14.239Z,6.70
2018-03-11T19:03:41.914Z,6.70
2018-03-11T19:06:09.552Z,6.60
2018-03-11T19:08:38.001Z,6.60
2018-03-11T19:11:05.660Z,6.60
2018-03-11T19:13:33.408Z,6.70
2018-03-11T19:16:01.373Z,6.70
2018-03-11T19:18:29.053Z,6.80
2018-03-11T19:20:56.714Z,6.80
2018-03-11T19:23:24.456Z,6.90
2018-03-11T19:25:52.219Z,6.80
2018-03-11T19:28:19.901Z,6.80
2018-03-11T19:30:47.660Z,6.80
2018-03-11T19:33:15.328Z,6.80
2018-03-11T19:35:43.066Z,6.70
2018-03-11T19:38:10.828Z,6.60
2018-03-11T19:40:38.591Z,6.50
2018-03-11T19:43:06.412Z,6.50
2018-03-11T19:45:34.957Z,6.70
2018-03-11T19:48:02.701Z,6.70
2018-03-11T19:50:31.418Z,6.80
2018-03-11T19:52:59.250Z,6.80
2018-03-11T19:55:26.876Z,6.70
2018-03-11T19:57:54.588Z,6.70
2018-03-11T20:00:22.257Z,6.70
2018-03-11T20:02:50.403Z,6.60
2018-03-11T20:05:18.170Z,6.70
2018-03-11T20:07:46.032Z,6.70
2018-03-11T20:10:13.796Z,6.80
2018-03-11T20:12:41.562Z,6.80
2018-03-11T20:15:09.239Z,6.80
2018-03-11T20:17:36.982Z,6.70
2018-03-11T20:20:04.776Z,6.50
2018-03-11T20:22:33.181Z,6.40
2018-03-11T20:25:00.885Z,6.40
2018-03-11T20:27:28.563Z,6.50
2018-03-11T20:29:56.309Z,6.40
2018-03-11T20:32:24.013Z,6.50
2018-03-11T20:34:52.655Z,6.40
2018-03-11T20:37:20.417Z,6.40
2018-03-11T20:39:48.096Z,6.40
2018-03-11T20:42:16.162Z,6.50
2018-03-11T20:44:43.910Z,6.50
2018-03-11T20:47:11.672Z,6.50
2018-03-11T20:49:39.538Z,6.50
2018-03-11T20:52:07.227Z,6.60
2018-03-11T20:54:34.961Z,6.50
2018-03-11T20:57:02.724Z,6.50
2018-03-11T20:59:30.404Z,6.50
2018-03-11T21:01:58.168Z,6.50
2018-03-11T21:04:25.916Z,6.40
2018-03-11T21:06:53.653Z,6.40
2018-03-11T21:09:21.437Z,6.40
2018-03-11T21:11:49.198Z,6.40
2018-03-11T21:14:16.880Z,6.40
2018-03-11T21:16:44.725Z,6.40
2018-03-11T21:19:12.488Z,6.60
2018-03-11T21:21:42.113Z,6.40
2018-03-11T21:24:09.800Z,6.20
2018-03-11T21:26:38.336Z,6.00
2018-03-11T21:29:06.103Z,5.90
2018-03-11T21:31:33.794Z,6.00
2018-03-11T21:34:01.626Z,6.00
2018-03-11T21:36:29.300Z,6.00
2018-03-11T21:38:57.050Z,6.00
2018-03-11T21:41:24.680Z,6.00
2018-03-11T21:43:52.399Z,6.10
2018-03-11T21:46:20.133Z,6.00
2018-03-11T21:48:47.895Z,6.10
2018-03-11T21:51:15.659Z,6.10
2018-03-11T21:53:43.341Z,6.00
2018-03-11T21:56:11.130Z,5.90
2018-03-11T21:58:39.671Z,5.90
2018-03-11T22:01:07.428Z,5.80
2018-03-11T22:03:35.088Z,5.90
2018-03-11T22:06:02.963Z,5.80
2018-03-11T22:08:30.593Z,6.00
2018-03-11T22:10:58.297Z,6.10
2018-03-11T22:13:26.140Z,6.10
2018-03-11T22:15:53.903Z,5.90
2018-03-11T22:18:21.581Z,5.80
2018-03-11T22:20:49.430Z,5.70
2018-03-11T22:23:17.107Z,5.90
2018-03-11T22:25:44.852Z,6.10
2018-03-11T22:28:12.718Z,6.10
2018-03-11T22:30:40.344Z,6.00
2018-03-11T22:33:08.141Z,5.70
2018-03-11T22:35:35.903Z,5.70
2018-03-11T22:38:03.666Z,5.50
2018-03-11T22:40:31.430Z,5.60
2018-03-11T22:42:59.193Z,5.50
2018-03-11T22:45:26.955Z,5.60
2018-03-11T22:47:54.639Z,5.60
2018-03-11T22:50:22.482Z,5.70
2018-03-11T22:52:50.160Z,5.70
2018-03-11T22:55:17.821Z,5.80
2018-03-11T22:57:45.667Z,5.60
2018-03-11T23:00:13.432Z,5.70
2018-03-11T23:02:41.109Z,5.80
2018-03-11T23:05:08.957Z,5.90
2018-03-11T23:07:36.637Z,6.00
2018-03-11T23:10:04.309Z,5.90
2018-03-11T23:12:32.861Z,6.00
2018-03-11T23:15:00.520Z,6.00
2018-03-11T23:17:28.285Z,6.10
2018-03-11T23:19:56.047Z,6.00
2018-03-11T23:22:23.724Z,6.10
2018-03-11T23:24:51.349Z,6.20
2018-03-11T23:27:19.130Z,6.20
2018-03-11T23:29:46.893Z,6.20
